createdAt,value
2022-12-29T00:03:02.087Z,101195.87
2022-12-29T00:21:26.524Z,101211.09
2022-12-29T00:27:33.473Z,101208.50
2022-12-29T00:49:23.652Z,101194.94
2022-12-29T00:54:38.287Z,101190.31
2022-12-29T01:18:00.594Z,101197.00
2022-12-29T01:42:40.897Z,101188.41
2022-12-29T01:46:58.103Z,101182.84
2022-12-29T01:51:11.919Z,101189.91
2022-12-29T01:55:22.479Z,101184.06
2022-12-29T01:59:33.008Z,101174.91
2022-12-29T02:03:37.713Z,101182.25
2022-12-29T02:07:46.794Z,101174.12
2022-12-29T02:11:46.367Z,101171.91
2022-12-29T02:16:06.318Z,101171.66
2022-12-29T02:20:24.663Z,101170.53
2022-12-29T02:24:28.216Z,101163.75
2022-12-29T02:29:24.184Z,101151.09
2022-12-29T02:33:44.206Z,101153.03
2022-12-29T02:37:35.305Z,101147.69
2022-12-29T02:41:48.382Z,101147.84
2022-12-29T02:46:20.922Z,101150.03
2022-12-29T02:50:42.720Z,101152.31
2022-12-29T02:54:48.477Z,101137.22
2022-12-29T02:59:33.170Z,101136.66
2022-12-29T03:03:24.424Z,101140.19
2022-12-29T03:12:40.392Z,101126.81
2022-12-29T03:16:50.231Z,101126.25
2022-12-29T03:21:16.831Z,101130.62
2022-12-29T03:25:46.421Z,101121.75
2022-12-29T03:29:41.541Z,101119.44
2022-12-29T03:33:50.549Z,101111.56
2022-12-29T03:37:51.964Z,101106.59
2022-12-29T03:41:52.933Z,101111.50
2022-12-29T03:45:54.611Z,101111.34
2022-12-29T03:49:28.845Z,101108.97
2022-12-29T03:53:13.344Z,101099.19
2022-12-29T04:01:49.953Z,101103.81
2022-12-29T04:05:56.522Z,101107.66
2022-12-29T04:11:15.699Z,101112.41
2022-12-29T04:14:31.244Z,101108.16
2022-12-29T04:18:27.520Z,101105.44
2022-12-29T04:22:38.947Z,101104.87
2022-12-29T04:26:48.199Z,101120.16
2022-12-29T04:31:03.641Z,101110.88
2022-12-29T04:35:05.131Z,101109.94
2022-12-29T04:39:08.591Z,101120.38
2022-12-29T04:43:05.891Z,101121.97
2022-12-29T04:46:59.608Z,101115.06
2022-12-29T04:51:05.578Z,101109.84
2022-12-29T04:54:43.361Z,101104.72
2022-12-29T04:58:42.999Z,101104.22
2022-12-29T05:01:51.248Z,101107.84
2022-12-29T05:05:38.122Z,101110.81
2022-12-29T05:09:49.274Z,101109.34
2022-12-29T05:13:49.430Z,101105.28
2022-12-29T05:17:16.048Z,101106.97
2022-12-29T05:21:04.819Z,101097.47
2022-12-29T05:24:49.428Z,101103.62
2022-12-29T05:28:50.402Z,101120.00
2022-12-29T05:32:44.321Z,101110.63
2022-12-29T05:36:38.002Z,101110.06
2022-12-29T05:40:43.128Z,101103.53
2022-12-29T05:44:27.464Z,101094.00
2022-12-29T05:48:41.536Z,101093.41
2022-12-29T05:52:56.159Z,101096.81
2022-12-29T05:56:47.015Z,101094.75
2022-12-29T06:00:51.628Z,101085.81
2022-12-29T06:04:49.984Z,101082.91
2022-12-29T06:08:53.090Z,101083.34
2022-12-29T06:13:14.007Z,101086.06
2022-12-29T06:17:17.567Z,101089.03
2022-12-29T06:21:24.935Z,101087.13
2022-12-29T06:25:39.346Z,101090.69
2022-12-29T06:29:41.369Z,101082.91
2022-12-29T06:33:03.588Z,101085.88
2022-12-29T06:37:15.782Z,101098.91
2022-12-29T06:41:31.896Z,101102.38
2022-12-29T06:45:54.524Z,101099.34
2022-12-29T06:49:45.120Z,101099.13
2022-12-29T06:53:13.671Z,101096.91
2022-12-29T06:57:25.735Z,101099.06
2022-12-29T07:00:59.025Z,101103.12
2022-12-29T07:04:46.785Z,101116.44
2022-12-29T07:08:10.567Z,101112.31
2022-12-29T07:11:54.308Z,101110.75
2022-12-29T07:15:26.012Z,101123.44
2022-12-29T07:19:12.829Z,101123.62
2022-12-29T07:22:34.381Z,101130.81
2022-12-29T07:26:08.095Z,101135.44
2022-12-29T07:29:43.334Z,101136.62
2022-12-29T07:33:17.467Z,101139.00
2022-12-29T07:36:55.490Z,101115.97
2022-12-29T07:40:27.876Z,101125.81
2022-12-29T07:44:05.351Z,101125.56
2022-12-29T07:47:53.868Z,101106.22
2022-12-29T07:51:30.263Z,101116.97
2022-12-29T07:54:59.278Z,101121.56
2022-12-29T07:58:43.224Z,101128.06
2022-12-29T08:02:20.379Z,101119.66
2022-12-29T08:06:23.916Z,101127.19
2022-12-29T08:09:35.845Z,101133.84
2022-12-29T08:13:19.150Z,101123.94
2022-12-29T08:16:23.184Z,101113.72
2022-12-29T08:19:48.682Z,101110.34
2022-12-29T08:23:18.054Z,101118.19
2022-12-29T08:26:32.102Z,101127.69
2022-12-29T08:30:25.126Z,101113.38
2022-12-29T08:33:55.008Z,101111.78
2022-12-29T08:37:35.722Z,101097.94
2022-12-29T08:41:04.291Z,101111.13
2022-12-29T08:44:08.244Z,101104.94
2022-12-29T08:47:13.799Z,101097.94
2022-12-29T08:50:40.938Z,101102.00
2022-12-29T08:54:26.713Z,101090.59
2022-12-29T08:58:15.876Z,101098.56
2022-12-29T09:01:54.948Z,101099.53
2022-12-29T09:09:18.497Z,101084.75
2022-12-29T09:12:24.511Z,101089.25
2022-12-29T09:16:06.622Z,101077.00
2022-12-29T09:19:55.907Z,101087.22
2022-12-29T09:23:35.741Z,101079.28
2022-12-29T09:27:02.661Z,101080.91
2022-12-29T09:30:11.340Z,101071.28
2022-12-29T09:33:23.741Z,101077.87
2022-12-29T09:36:47.456Z,101068.56
2022-12-29T09:39:54.544Z,101063.13
2022-12-29T09:44:11.929Z,101058.38
2022-12-29T09:47:45.874Z,101068.44
2022-12-29T09:51:25.270Z,101049.75
2022-12-29T09:55:15.109Z,101044.13
2022-12-29T09:58:29.045Z,101043.75
2022-12-29T10:02:35.535Z,101038.53
2022-12-29T10:06:33.030Z,101037.41
2022-12-29T10:10:39.701Z,101023.59
2022-12-29T10:14:53.536Z,101036.00
2022-12-29T10:19:05.351Z,101014.16
2022-12-29T10:23:06.687Z,101006.59
2022-12-29T10:26:49.228Z,101013.88
2022-12-29T10:30:20.190Z,101006.94
2022-12-29T10:34:01.843Z,101002.69
2022-12-29T10:38:00.050Z,101010.91
2022-12-29T10:41:46.863Z,101010.37
2022-12-29T10:45:19.675Z,101004.69
2022-12-29T10:48:38.126Z,101006.00
2022-12-29T10:52:18.675Z,100998.84
2022-12-29T10:55:52.884Z,101002.97
2022-12-29T10:59:02.918Z,100991.56
2022-12-29T11:02:42.802Z,100986.31
2022-12-29T11:06:24.573Z,100973.91
2022-12-29T11:09:51.617Z,100975.44
2022-12-29T11:13:25.707Z,100971.38
2022-12-29T11:17:05.351Z,100975.16
2022-12-29T11:20:40.055Z,100984.44
2022-12-29T11:24:26.622Z,100971.63
2022-12-29T11:27:57.304Z,100970.47
2022-12-29T11:31:18.453Z,100958.87
2022-12-29T11:34:59.930Z,100960.56
2022-12-29T11:38:41.568Z,100954.00
2022-12-29T11:46:39.930Z,100952.28
2022-12-29T11:50:32.591Z,100941.87
2022-12-29T11:54:06.374Z,100941.31
2022-12-29T11:57:47.975Z,100939.44
2022-12-29T12:01:34.178Z,100935.13
2022-12-29T12:05:16.588Z,100932.59
2022-12-29T12:09:31.442Z,100930.09
2022-12-29T12:18:28.391Z,100931.47
2022-12-29T12:22:41.631Z,100933.59
2022-12-29T12:30:24.391Z,100921.13
2022-12-29T12:34:03.068Z,100915.06
2022-12-29T12:38:27.354Z,100914.25
2022-12-29T12:42:28.185Z,100907.03
2022-12-29T12:46:02.467Z,100901.44
2022-12-29T12:50:17.331Z,100891.72
2022-12-29T12:54:20.136Z,100878.78
2022-12-29T12:58:27.562Z,100875.44
2022-12-29T13:02:24.939Z,100868.91
2022-12-29T13:06:52.045Z,100876.38
2022-12-29T13:10:36.112Z,100885.53
2022-12-29T13:14:20.285Z,100903.03
2022-12-29T13:18:21.382Z,100894.44
2022-12-29T13:22:07.346Z,100904.28
2022-12-29T13:26:03.998Z,100899.66
2022-12-29T13:30:02.920Z,100894.69
2022-12-29T13:34:24.870Z,100888.28
2022-12-29T13:38:30.134Z,100891.00
2022-12-29T13:41:57.182Z,100905.75
2022-12-29T13:45:43.825Z,100908.09
2022-12-29T13:49:03.589Z,100914.84
2022-12-29T13:52:53.355Z,100915.72
2022-12-29T13:56:28.261Z,100913.47
2022-12-29T14:00:24.211Z,100912.03
2022-12-29T14:03:44.446Z,100910.44
2022-12-29T14:07:21.383Z,100904.91
2022-12-29T14:10:47.389Z,100908.66
2022-12-29T14:14:31.632Z,100909.97
2022-12-29T14:18:35.721Z,100913.22
2022-12-29T14:22:06.102Z,100914.53
2022-12-29T14:25:59.431Z,100916.66
2022-12-29T14:29:40.969Z,100923.28
2022-12-29T14:33:27.995Z,100925.94
2022-12-29T14:37:00.937Z,100915.13
2022-12-29T14:40:35.119Z,100914.53
2022-12-29T14:44:21.012Z,100907.16
2022-12-29T14:47:39.725Z,100910.97
2022-12-29T14:51:03.258Z,100905.81
2022-12-29T14:54:39.766Z,100923.78
2022-12-29T14:58:13.579Z,100918.91
2022-12-29T15:02:23.456Z,100926.16
2022-12-29T15:06:10.079Z,100931.00
2022-12-29T15:10:04.983Z,100924.81
2022-12-29T15:13:39.566Z,100935.84
2022-12-29T15:17:28.367Z,100915.94
2022-12-29T15:20:59.119Z,100930.50
2022-12-29T15:24:44.085Z,100934.00
2022-12-29T15:28:07.692Z,100950.19
2022-12-29T15:31:49.557Z,100953.66
2022-12-29T15:35:30.315Z,100947.81
2022-12-29T15:38:57.627Z,100945.72
2022-12-29T15:43:01.849Z,100941.25
2022-12-29T15:46:34.434Z,100941.19
2022-12-29T15:50:07.315Z,100941.41
2022-12-29T15:53:54.972Z,100934.91
2022-12-29T15:57:28.095Z,100936.41
2022-12-29T16:01:15.066Z,100937.06
2022-12-29T16:05:23.092Z,100941.81
2022-12-29T16:08:56.776Z,100941.87
2022-12-29T16:12:39.299Z,100946.81
2022-12-29T16:20:20.967Z,100964.75
2022-12-29T16:24:01.662Z,100949.00
2022-12-29T16:27:55.261Z,100952.75
2022-12-29T16:31:24.110Z,100952.59
2022-12-29T16:35:14.405Z,100951.78
2022-12-29T16:38:52.559Z,100963.00
2022-12-29T16:42:50.608Z,100954.38
2022-12-29T16:46:01.496Z,100952.28
2022-12-29T16:49:48.238Z,100968.03
2022-12-29T16:53:33.738Z,100955.03
2022-12-29T16:57:09.739Z,100959.09
2022-12-29T17:00:39.771Z,100965.75
2022-12-29T17:04:13.060Z,100967.56
2022-12-29T17:07:22.426Z,100960.88
2022-12-29T17:11:01.303Z,100972.91
2022-12-29T17:14:48.449Z,100969.50
2022-12-29T17:18:39.040Z,100962.81
2022-12-29T17:22:35.085Z,100964.09
2022-12-29T17:25:59.602Z,100957.12
2022-12-29T17:29:43.749Z,100963.81
2022-12-29T17:33:25.647Z,100966.06
2022-12-29T17:36:30.479Z,100962.31
2022-12-29T17:39:54.445Z,100957.94
2022-12-29T17:43:18.939Z,100966.22
2022-12-29T17:47:02.446Z,100972.25
2022-12-29T17:50:32.176Z,100968.97
2022-12-29T17:53:57.256Z,100963.63
2022-12-29T17:57:21.566Z,100956.97
2022-12-29T18:00:31.053Z,100959.06
2022-12-29T18:04:35.141Z,100948.19
2022-12-29T18:07:40.172Z,100946.25
2022-12-29T18:10:47.075Z,100952.25
2022-12-29T18:13:50.263Z,100939.41
2022-12-29T18:17:09.919Z,100941.38
2022-12-29T18:20:13.907Z,100934.88
2022-12-29T18:23:31.302Z,100939.59
2022-12-29T18:26:54.329Z,100946.91
2022-12-29T18:30:01.644Z,100936.81
2022-12-29T18:33:26.786Z,100928.37
2022-12-29T18:36:54.128Z,100927.56
2022-12-29T18:40:19.871Z,100926.44
2022-12-29T18:43:58.075Z,100931.78
2022-12-29T18:47:20.620Z,100936.50
2022-12-29T18:50:27.299Z,100929.66
2022-12-29T18:53:53.451Z,100935.81
2022-12-29T18:57:01.286Z,100935.81
2022-12-29T19:00:57.063Z,100927.69
2022-12-29T19:15:40.805Z,100931.25
2022-12-29T19:23:09.277Z,100918.59
2022-12-29T19:26:40.628Z,100919.22
2022-12-29T19:30:34.463Z,100918.41
2022-12-29T19:34:18.677Z,100919.69
2022-12-29T19:37:53.653Z,100927.16
2022-12-29T19:41:35.845Z,100915.66
2022-12-29T19:45:06.781Z,100908.81
2022-12-29T19:52:26.458Z,100909.50
2022-12-29T19:55:59.119Z,100909.31
2022-12-29T20:00:05.088Z,100925.22
2022-12-29T20:03:32.587Z,100920.50
2022-12-29T20:07:14.275Z,100912.06
2022-12-29T20:10:44.008Z,100915.81
2022-12-29T20:14:51.974Z,100904.44
2022-12-29T20:18:22.478Z,100910.75
2022-12-29T20:21:38.355Z,100903.91
2022-12-29T20:32:35.896Z,100890.59
2022-12-29T20:40:16.111Z,100889.62
2022-12-29T20:44:08.282Z,100899.06
2022-12-29T20:47:43.876Z,100881.03
2022-12-29T20:51:16.844Z,100888.31
2022-12-29T20:54:53.930Z,100881.72
2022-12-29T20:58:33.057Z,100893.53
2022-12-29T21:02:11.474Z,100888.00
2022-12-29T21:05:54.247Z,100883.81
2022-12-29T21:09:27.087Z,100888.69
2022-12-29T21:12:59.807Z,100890.66
2022-12-29T21:16:35.306Z,100899.59
2022-12-29T21:20:32.375Z,100902.66
2022-12-29T21:24:06.558Z,100907.53
2022-12-29T21:27:43.114Z,100904.94
2022-12-29T21:31:18.440Z,100903.84
2022-12-29T21:35:00.963Z,100909.22
2022-12-29T21:38:36.586Z,100894.44
2022-12-29T21:42:15.511Z,100883.72
2022-12-29T21:45:51.946Z,100888.41
2022-12-29T21:49:26.465Z,100881.44
2022-12-29T21:52:58.266Z,100880.75
2022-12-29T21:56:34.451Z,100882.72
2022-12-29T22:00:56.410Z,100884.81
2022-12-29T22:04:45.012Z,100880.94
2022-12-29T22:08:08.182Z,100885.97
2022-12-29T22:11:33.088Z,100891.03
2022-12-29T22:14:37.217Z,100892.34
2022-12-29T22:17:48.875Z,100892.31
2022-12-29T22:21:11.440Z,100899.16
2022-12-29T22:24:18.089Z,100888.56
2022-12-29T22:27:23.548Z,100898.16
2022-12-29T22:30:30.979Z,100894.75
2022-12-29T22:33:56.104Z,100900.63
2022-12-29T22:37:04.532Z,100895.88
2022-12-29T22:40:10.003Z,100890.03
2022-12-29T22:43:15.517Z,100885.16
2022-12-29T22:46:20.849Z,100881.59
2022-12-29T22:49:24.213Z,100870.34
2022-12-29T22:52:27.893Z,100869.06
2022-12-29T22:55:30.927Z,100872.47
2022-12-29T22:58:48.459Z,100877.81
2022-12-29T23:01:51.215Z,100870.50
2022-12-29T23:05:04.341Z,100873.78
2022-12-29T23:08:31.196Z,100877.66
2022-12-29T23:11:56.875Z,100863.81
2022-12-29T23:15:02.826Z,100861.06
2022-12-29T23:18:05.898Z,100875.00
2022-12-29T23:21:12.218Z,100875.00
2022-12-29T23:24:15.327Z,100868.22
2022-12-29T23:27:18.330Z,100864.44
2022-12-29T23:30:25.066Z,100862.66
2022-12-29T23:33:28.183Z,100862.31
2022-12-29T23:36:31.932Z,100866.81
2022-12-29T23:39:37.287Z,100865.22
2022-12-29T23:42:40.980Z,100867.28
2022-12-29T23:45:51.057Z,100861.88
2022-12-29T23:48:54.568Z,100854.88
2022-12-29T23:51:59.206Z,100850.13
2022-12-29T23:55:03.004Z,100846.87
2022-12-29T23:58:26.178Z,100829.75
